Time;durP1;ratioP1;P1;durP2;ratioP2;P2;SDS_P1;SDS_P2;PMS_P1;PMS_P2;Temp;Humidity;BMP_temperature;BMP_pressure;BME280_temperature;BME280_humidity;BME280_pressure;Samples;Min_cycle;Max_cycle;Signal;HPM_P1;HPM_P2
2023/08/12 00:01:43;;;;;;;7.95;3.45;;;26.40;73.70;;;;;;6265915;23;19996;-79
2023/08/12 00:04:11;;;;;;;7.53;3.42;;;26.40;73.10;;;;;;6205981;23;20033;-80
2023/08/12 00:06:37;;;;;;;7.68;3.83;;;26.30;72.60;;;;;;6215838;23;20001;-79
2023/08/12 00:09:03;;;;;;;8.48;3.65;;;26.20;72.20;;;;;;6214913;23;20447;-80
2023/08/12 00:11:29;;;;;;;7.72;3.60;;;26.20;71.50;;;;;;6217395;23;20005;-81
2023/08/12 00:13:55;;;;;;;7.57;3.47;;;26.20;70.90;;;;;;6216020;23;20008;-79
2023/08/12 00:16:21;;;;;;;8.50;3.50;;;26.20;70.40;;;;;;6215324;23;19996;-81
2023/08/12 00:18:49;;;;;;;8.75;3.47;;;26.20;69.70;;;;;;6188878;23;20025;-80
2023/08/12 00:21:15;;;;;;;6.18;3.38;;;26.20;69.30;;;;;;6214883;23;19997;-81
2023/08/12 00:23:41;;;;;;;7.30;3.38;;;26.10;69.20;;;;;;6214809;23;20009;-80
2023/08/12 00:26:08;;;;;;;8.27;3.70;;;26.10;69.10;;;;;;6215162;23;19997;-81
2023/08/12 00:28:37;;;;;;;7.75;3.90;;;26.10;69.10;;;;;;6222181;23;20003;-79
2023/08/12 00:31:04;;;;;;;8.43;4.35;;;26.00;69.00;;;;;;6199271;23;20423;-81
2023/08/12 00:33:30;;;;;;;11.05;3.85;;;25.90;68.60;;;;;;6215653;23;20016;-81
2023/08/12 00:35:55;;;;;;;9.13;3.97;;;25.90;68.70;;;;;;6215535;23;20422;-80
2023/08/12 00:38:22;;;;;;;10.85;3.95;;;25.90;68.80;;;;;;6215156;23;20080;-79
2023/08/12 00:40:48;;;;;;;7.03;3.55;;;25.80;68.50;;;;;;6213955;23;20024;-80
2023/08/12 00:43:14;;;;;;;11.35;4.45;;;25.80;68.40;;;;;;6213947;23;20011;-80
2023/08/12 00:45:41;;;;;;;10.40;4.05;;;25.80;68.10;;;;;;6188882;23;20014;-80
2023/08/12 00:48:10;;;;;;;10.85;3.88;;;25.80;68.10;;;;;;6215352;23;20005;-80
2023/08/12 00:50:40;;;;;;;9.20;3.63;;;25.80;67.80;;;;;;6215069;23;20072;-80
2023/08/12 00:53:07;;;;;;;9.25;3.50;;;25.80;67.80;;;;;;6187590;23;20067;-79
2023/08/12 00:55:34;;;;;;;9.05;3.70;;;25.80;67.60;;;;;;6215369;23;20046;-80
2023/08/12 00:58:00;;;;;;;7.32;3.35;;;25.80;67.60;;;;;;6190191;23;20023;-80
2023/08/12 01:00:26;;;;;;;8.55;3.83;;;25.80;67.40;;;;;;6216807;23;20043;-81
2023/08/12 01:02:53;;;;;;;8.77;3.40;;;25.70;67.60;;;;;;6216535;23;20036;-78
2023/08/12 01:05:20;;;;;;;9.25;3.67;;;25.70;67.50;;;;;;6216495;23;20481;-80
2023/08/12 01:07:48;;;;;;;11.50;3.88;;;25.70;67.10;;;;;;6190244;23;20012;-81
2023/08/12 01:10:16;;;;;;;9.15;3.88;;;25.60;67.10;;;;;;6216598;23;20059;-80
2023/08/12 01:12:53;;;;;;;12.63;4.20;;;25.70;67.40;;;;;;6190125;23;20028;-79
2023/08/12 01:15:23;;;;;;;7.60;4.20;;;25.60;67.30;;;;;;6216590;23;19996;-80
2023/08/12 01:17:52;;;;;;;7.85;3.60;;;25.70;67.40;;;;;;6216800;23;20009;-81
2023/08/12 01:20:24;;;;;;;9.32;3.78;;;25.70;67.20;;;;;;6216715;23;20001;-81
2023/08/12 01:23:13;;;;;;;7.43;3.67;;;25.60;67.80;;;;;;6216810;23;20007;-79
2023/08/12 01:25:42;;;;;;;8.93;3.65;;;25.50;67.50;;;;;;6197910;23;20005;-79
2023/08/12 01:28:08;;;;;;;7.55;3.60;;;25.50;68.00;;;;;;6219982;23;20000;-80
2023/08/12 01:30:47;;;;;;;9.85;3.90;;;25.40;67.50;;;;;;6190209;23;20061;-80
2023/08/12 01:33:33;;;;;;;7.72;3.88;;;25.40;67.70;;;;;;6216500;23;20087;-80
2023/08/12 01:36:29;;;;;;;10.52;3.90;;;25.40;67.80;;;;;;6216263;23;20001;-80
2023/08/12 01:38:56;;;;;;;7.30;3.65;;;25.40;67.80;;;;;;6185244;23;20009;-81
2023/08/12 01:41:23;;;;;;;8.30;3.85;;;25.30;67.90;;;;;;6216739;23;20024;-78
2023/08/12 01:43:49;;;;;;;8.63;3.80;;;25.20;67.90;;;;;;6189390;23;20019;-81
2023/08/12 01:46:15;;;;;;;7.93;3.63;;;25.10;68.10;;;;;;6189569;23;20038;-80
2023/08/12 01:48:41;;;;;;;9.35;3.92;;;25.10;68.00;;;;;;6216125;23;20438;-79
2023/08/12 01:51:07;;;;;;;8.60;3.35;;;25.10;68.10;;;;;;6189417;23;20031;-79
2023/08/12 01:53:33;;;;;;;8.20;3.30;;;25.00;68.20;;;;;;6217719;23;20438;-80
2023/08/12 01:55:59;;;;;;;10.45;3.58;;;24.90;68.10;;;;;;6227561;23;19996;-79
2023/08/12 01:58:28;;;;;;;7.13;3.88;;;24.90;68.60;;;;;;6217730;23;20001;-81
2023/08/12 02:00:54;;;;;;;10.85;3.55;;;24.90;68.80;;;;;;6216305;23;20047;-80
2023/08/12 02:03:20;;;;;;;6.30;3.47;;;24.90;68.90;;;;;;6190080;23;20021;-80
2023/08/12 02:05:46;;;;;;;7.72;3.38;;;24.90;68.90;;;;;;6216742;23;20035;-80
2023/08/12 02:08:13;;;;;;;9.20;3.40;;;24.80;69.10;;;;;;6217302;23;20028;-80
2023/08/12 02:10:39;;;;;;;8.27;3.53;;;24.80;69.10;;;;;;6216404;23;20011;-81
2023/08/12 02:13:05;;;;;;;7.43;3.70;;;24.80;69.50;;;;;;6189372;23;20067;-80
2023/08/12 02:15:31;;;;;;;6.25;3.17;;;24.80;69.60;;;;;;6216232;23;20007;-80
2023/08/12 02:17:58;;;;;;;8.85;3.70;;;24.70;70.50;;;;;;6216443;23;20005;-81
2023/08/12 02:20:27;;;;;;;8.25;3.30;;;24.80;69.60;;;;;;6215992;23;20075;-80
2023/08/12 02:22:56;;;;;;;8.10;3.60;;;24.90;70.00;;;;;;6192702;23;20017;-78
2023/08/12 02:25:22;;;;;;;8.70;3.83;;;24.90;69.80;;;;;;6222489;23;20031;-80
2023/08/12 02:27:48;;;;;;;8.25;3.42;;;24.90;69.80;;;;;;6216163;23;20000;-79
2023/08/12 02:30:14;;;;;;;9.15;3.38;;;24.90;69.80;;;;;;6189442;23;20032;-79
2023/08/12 02:32:43;;;;;;;10.68;3.10;;;24.90;69.70;;;;;;6215611;23;20009;-80
2023/08/12 02:35:10;;;;;;;7.47;3.40;;;24.90;69.90;;;;;;6215991;23;20079;-80
2023/08/12 02:37:36;;;;;;;6.65;3.28;;;24.90;69.80;;;;;;6194081;23;20513;-80
2023/08/12 02:40:04;;;;;;;7.30;3.85;;;24.90;69.90;;;;;;6222984;23;19997;-80
2023/08/12 02:42:30;;;;;;;8.38;3.10;;;24.80;69.70;;;;;;6224169;23;20000;-80
2023/08/12 02:44:57;;;;;;;6.28;3.40;;;24.80;70.40;;;;;;6189119;23;20577;-79
2023/08/12 02:47:23;;;;;;;10.05;3.40;;;24.80;69.80;;;;;;6215944;23;20004;-80
2023/08/12 02:49:49;;;;;;;7.45;3.50;;;24.80;70.60;;;;;;6216070;23;20080;-79
2023/08/12 02:52:14;;;;;;;7.35;3.17;;;24.80;70.10;;;;;;6215489;23;20695;-79
2023/08/12 02:54:40;;;;;;;5.57;3.20;;;24.80;70.20;;;;;;6215833;23;20083;-80
2023/08/12 02:57:06;;;;;;;6.20;3.25;;;24.70;70.30;;;;;;6215662;23;20076;-80
2023/08/12 02:59:32;;;;;;;7.50;3.13;;;24.70;70.20;;;;;;6215706;23;20452;-79
2023/08/12 03:01:59;;;;;;;7.47;3.35;;;24.80;70.20;;;;;;6215430;23;20047;-81
2023/08/12 03:04:25;;;;;;;6.85;2.97;;;24.70;70.00;;;;;;6188697;23;20016;-80
2023/08/12 03:06:51;;;;;;;6.57;2.85;;;24.70;70.20;;;;;;6215557;23;20303;-79
2023/08/12 03:09:18;;;;;;;8.80;2.80;;;24.70;70.00;;;;;;6216531;23;20043;-80
2023/08/12 03:11:44;;;;;;;7.43;3.30;;;24.60;70.00;;;;;;6215715;23;20005;-80
2023/08/12 03:14:10;;;;;;;7.28;2.80;;;24.60;70.00;;;;;;6215392;23;20080;-79
2023/08/12 03:16:36;;;;;;;8.30;3.17;;;24.60;69.70;;;;;;6188989;23;20013;-81
2023/08/12 03:19:05;;;;;;;8.25;3.35;;;24.60;69.80;;;;;;6218574;23;20000;-78
2023/08/12 03:21:31;;;;;;;8.38;3.08;;;24.50;69.60;;;;;;6229909;23;20036;-79
2023/08/12 03:23:59;;;;;;;10.30;2.83;;;24.40;69.70;;;;;;6219172;23;20005;-76
2023/08/12 03:26:28;;;;;;;5.57;2.45;;;24.40;69.40;;;;;;6215663;23;19997;-81
2023/08/12 03:28:54;;;;;;;8.00;2.90;;;24.40;69.20;;;;;;6188706;23;20019;-80
2023/08/12 03:31:20;;;;;;;6.47;2.65;;;24.40;69.00;;;;;;6215267;23;20050;-81
2023/08/12 03:33:46;;;;;;;7.10;3.50;;;24.40;68.80;;;;;;6215217;23;20047;-81
2023/08/12 03:36:12;;;;;;;4.90;2.33;;;24.40;68.90;;;;;;6214987;23;20068;-80
2023/08/12 03:38:41;;;;;;;6.35;3.00;;;24.30;68.60;;;;;;6214790;23;20334;-79
2023/08/12 03:41:07;;;;;;;7.25;2.60;;;24.30;68.50;;;;;;6215247;23;20096;-80
2023/08/12 03:43:37;;;;;;;6.20;2.92;;;24.30;68.60;;;;;;6215100;23;20004;-80
2023/08/12 03:46:06;;;;;;;8.50;3.10;;;24.20;68.20;;;;;;6215060;23;20009;-80
2023/08/12 03:48:38;;;;;;;6.90;2.88;;;24.20;68.50;;;;;;6215184;23;20075;-79
2023/08/12 03:51:07;;;;;;;6.45;2.55;;;24.10;68.50;;;;;;6215110;23;20004;-79
2023/08/12 03:53:34;;;;;;;7.38;2.95;;;24.00;68.60;;;;;;6214918;23;20020;-79
2023/08/12 03:56:00;;;;;;;7.70;2.78;;;24.10;68.20;;;;;;6215193;23;20056;-79
2023/08/12 03:58:26;;;;;;;8.23;2.90;;;23.90;68.70;;;;;;6215349;23;20092;-79
2023/08/12 04:00:55;;;;;;;8.35;3.58;;;24.00;68.80;;;;;;6215144;23;20024;-79
2023/08/12 04:03:24;;;;;;;6.35;2.90;;;24.00;68.80;;;;;;6215022;23;20520;-79
2023/08/12 04:05:52;;;;;;;7.38;3.17;;;24.00;69.10;;;;;;6215162;23;20004;-80
2023/08/12 04:08:19;;;;;;;7.65;2.95;;;24.00;69.20;;;;;;6214976;23;20031;-80
2023/08/12 04:10:49;;;;;;;8.90;3.03;;;24.00;69.00;;;;;;6188570;23;20016;-80
2023/08/12 04:13:15;;;;;;;9.30;2.95;;;24.00;69.20;;;;;;6215169;23;20009;-80
2023/08/12 04:15:42;;;;;;;6.60;3.08;;;24.00;69.10;;;;;;6215300;23;20004;-78
2023/08/12 04:18:27;;;;;;;8.75;2.97;;;24.00;69.20;;;;;;6222572;23;20007;-78
2023/08/12 04:20:53;;;;;;;8.75;3.60;;;24.00;69.10;;;;;;6215519;23;20007;-79
2023/08/12 04:23:20;;;;;;;6.35;3.35;;;24.00;69.50;;;;;;6215362;23;20036;-79
2023/08/12 04:25:49;;;;;;;6.43;3.08;;;24.00;69.70;;;;;;6215526;23;20423;-80
2023/08/12 04:28:18;;;;;;;6.47;3.15;;;24.00;69.70;;;;;;6214969;23;20335;-80
2023/08/12 04:30:47;;;;;;;5.97;3.22;;;23.90;69.50;;;;;;6215417;23;20441;-79
2023/08/12 04:33:14;;;;;;;7.65;3.05;;;23.90;69.60;;;;;;6216444;23;20016;-80
2023/08/12 04:35:44;;;;;;;11.43;3.63;;;23.90;69.70;;;;;;6216962;23;20001;-79
2023/08/12 04:38:12;;;;;;;7.38;3.35;;;23.90;69.80;;;;;;6190867;23;20008;-80
2023/08/12 04:40:40;;;;;;;7.32;3.75;;;23.80;69.90;;;;;;6217817;23;20074;-79
2023/08/12 04:43:13;;;;;;;8.65;3.17;;;23.90;69.90;;;;;;6196971;23;20005;-80
2023/08/12 04:45:39;;;;;;;6.55;3.25;;;23.80;69.90;;;;;;6219833;23;20004;-79
2023/08/12 04:48:06;;;;;;;10.35;3.55;;;23.80;69.60;;;;;;6216921;23;20058;-79
2023/08/12 04:50:34;;;;;;;10.30;4.80;;;23.80;69.70;;;;;;6216671;23;20075;-79
2023/08/12 04:53:03;;;;;;;8.27;3.58;;;23.80;69.70;;;;;;6216819;23;20498;-80
2023/08/12 04:55:41;;;;;;;7.13;3.08;;;23.80;69.50;;;;;;6189942;23;20005;-79
2023/08/12 04:58:07;;;;;;;9.20;3.30;;;23.80;69.50;;;;;;6216710;23;20092;-80
2023/08/12 05:00:33;;;;;;;6.97;3.03;;;23.90;69.40;;;;;;6216916;23;19996;-79
2023/08/12 05:02:59;;;;;;;6.15;3.10;;;23.90;69.40;;;;;;6215964;23;20182;-80
2023/08/12 05:05:27;;;;;;;4.93;2.83;;;23.90;69.40;;;;;;6216679;23;20024;-80
2023/08/12 05:07:53;;;;;;;6.05;3.38;;;24.00;69.10;;;;;;6216623;23;20007;-81
2023/08/12 05:10:19;;;;;;;6.43;3.20;;;24.10;68.60;;;;;;6216925;23;20313;-80
2023/08/12 05:12:46;;;;;;;5.78;2.67;;;24.10;68.50;;;;;;6216586;23;20008;-81
2023/08/12 05:15:22;;;;;;;6.75;2.50;;;24.00;68.10;;;;;;6226715;23;20000;-80
2023/08/12 05:17:48;;;;;;;8.65;2.97;;;24.00;67.90;;;;;;6221329;23;20004;-81
2023/08/12 05:20:14;;;;;;;8.20;3.17;;;24.00;67.70;;;;;;6216467;23;20008;-81
2023/08/12 05:22:40;;;;;;;7.30;2.88;;;24.20;67.50;;;;;;6217314;23;20039;-82
2023/08/12 05:25:06;;;;;;;7.45;3.13;;;24.30;67.30;;;;;;6190196;23;20000;-81
2023/08/12 05:27:32;;;;;;;7.43;4.55;;;24.40;66.70;;;;;;6216457;23;20036;-80
2023/08/12 05:29:58;;;;;;;7.03;4.85;;;24.50;66.50;;;;;;6215788;23;20453;-81
2023/08/12 05:32:24;;;;;;;9.38;3.92;;;24.70;66.10;;;;;;6216748;23;20324;-81
2023/08/12 05:34:52;;;;;;;9.30;3.72;;;25.00;65.40;;;;;;6216544;23;20470;-81
2023/08/12 05:37:20;;;;;;;7.47;3.17;;;25.30;65.00;;;;;;6189568;23;20009;-82
2023/08/12 05:39:49;;;;;;;7.45;3.33;;;25.40;64.30;;;;;;6216413;23;19996;-81
2023/08/12 05:42:15;;;;;;;7.05;3.40;;;25.70;63.80;;;;;;6216031;23;20004;-81
2023/08/12 05:44:42;;;;;;;5.95;2.58;;;26.00;62.70;;;;;;6216413;23;20000;-81
2023/08/12 05:47:08;;;;;;;7.75;3.25;;;26.30;62.00;;;;;;6216177;23;20051;-81
2023/08/12 05:49:34;;;;;;;6.03;2.97;;;26.50;61.60;;;;;;6216032;23;20000;-82
2023/08/12 05:52:00;;;;;;;4.53;2.55;;;26.80;60.90;;;;;;6216398;23;20008;-81
2023/08/12 05:54:26;;;;;;;4.50;2.65;;;27.20;60.00;;;;;;6216868;23;20082;-81
2023/08/12 05:56:52;;;;;;;6.18;2.60;;;27.40;59.30;;;;;;6216017;23;19997;-80
2023/08/12 05:59:18;;;;;;;6.18;2.65;;;27.50;58.30;;;;;;6216065;23;20001;-81
2023/08/12 06:01:45;;;;;;;8.13;3.72;;;27.80;57.50;;;;;;6189278;23;20091;-80
2023/08/12 11:38:54;;;;;;;4.88;2.70;;;31.80;45.10;;;;;;6208805;23;20131;-76
2023/08/12 11:41:23;;;;;;;6.20;2.50;;;31.80;46.10;;;;;;6207746;23;20324;-76
2023/08/12 11:43:48;;;;;;;5.53;2.65;;;31.80;45.80;;;;;;6218731;23;20000;-77
2023/08/12 11:46:16;;;;;;;17.30;5.25;;;31.90;45.30;;;;;;6218097;23;20000;-77
2023/08/12 11:48:43;;;;;;;45.47;13.60;;;31.90;44.50;;;;;;6215714;23;20001;-76
2023/08/12 11:51:09;;;;;;;77.05;22.15;;;32.00;44.80;;;;;;6213317;23;20012;-74
2023/08/12 11:53:35;;;;;;;17.95;5.93;;;32.10;45.70;;;;;;6213484;23;20471;-75
2023/08/12 11:56:01;;;;;;;36.30;11.88;;;32.10;45.20;;;;;;6213454;23;20008;-75
2023/08/12 11:58:36;;;;;;;20.17;6.05;;;32.10;45.50;;;;;;6215035;23;20001;-75
2023/08/12 12:01:02;;;;;;;38.30;12.50;;;32.10;45.30;;;;;;6213430;23;20138;-75
2023/08/12 12:03:29;;;;;;;15.23;5.75;;;32.20;45.50;;;;;;6215145;23;20004;-75
2023/08/12 12:05:56;;;;;;;9.50;4.68;;;32.30;45.00;;;;;;6215262;23;19996;-74
2023/08/12 12:08:22;;;;;;;8.63;4.10;;;32.30;44.80;;;;;;6214517;23;20011;-74
2023/08/12 12:10:48;;;;;;;9.55;3.75;;;32.30;44.80;;;;;;6214295;23;20388;-72
2023/08/12 12:13:14;;;;;;;18.70;6.38;;;32.30;44.40;;;;;;6212695;23;20013;-74
2023/08/12 12:15:43;;;;;;;12.18;4.90;;;32.40;44.60;;;;;;6212344;23;19997;-74
2023/08/12 12:18:11;;;;;;;24.48;8.18;;;32.40;45.10;;;;;;6213009;23;20486;-74
2023/08/12 12:20:43;;;;;;;22.42;7.75;;;32.50;45.30;;;;;;6213859;23;19996;-72
2023/08/12 12:23:09;;;;;;;21.50;7.97;;;32.60;45.30;;;;;;6214174;23;20072;-73
2023/08/12 12:25:34;;;;;;;17.15;7.43;;;32.50;45.50;;;;;;6214258;23;19996;-73
2023/08/12 12:28:08;;;;;;;9.05;3.70;;;32.60;45.70;;;;;;6214422;23;20008;-73
2023/08/12 12:30:34;;;;;;;8.43;3.10;;;32.70;45.10;;;;;;6214902;23;19997;-73
2023/08/12 12:33:00;;;;;;;12.70;4.45;;;32.70;44.90;;;;;;6214777;23;20020;-74
2023/08/12 12:35:26;;;;;;;14.48;5.05;;;32.80;45.20;;;;;;6213498;23;20059;-73
2023/08/12 12:37:52;;;;;;;8.52;3.25;;;32.90;45.70;;;;;;6213729;23;20347;-73
2023/08/12 12:40:18;;;;;;;11.20;4.15;;;32.90;45.30;;;;;;6223611;23;20017;-73
2023/08/12 12:42:44;;;;;;;6.50;2.78;;;32.90;45.20;;;;;;6215557;23;20012;-73
2023/08/12 12:45:10;;;;;;;8.18;3.25;;;32.90;45.10;;;;;;6214824;23;20007;-73
2023/08/12 12:47:37;;;;;;;11.27;4.10;;;32.90;45.20;;;;;;6215179;23;20008;-74
2023/08/12 12:50:03;;;;;;;19.25;7.28;;;32.90;45.30;;;;;;6214977;23;19997;-75
2023/08/12 12:52:29;;;;;;;16.13;7.20;;;32.90;46.00;;;;;;6216604;23;20810;-74
2023/08/12 12:54:57;;;;;;;8.23;3.97;;;33.00;46.30;;;;;;6215426;23;20086;-73
2023/08/12 12:57:23;;;;;;;6.78;2.78;;;33.00;46.00;;;;;;6216882;23;20075;-72
2023/08/12 12:59:49;;;;;;;9.45;3.47;;;33.10;46.00;;;;;;6215335;23;20054;-73
2023/08/12 13:02:15;;;;;;;11.45;5.68;;;33.10;45.60;;;;;;6216587;23;20000;-72
2023/08/12 13:04:41;;;;;;;5.97;2.85;;;33.10;46.30;;;;;;6216964;23;20001;-72
2023/08/12 13:07:06;;;;;;;10.30;4.30;;;33.10;46.00;;;;;;6215351;23;20015;-72
2023/08/12 13:09:32;;;;;;;11.90;5.47;;;33.20;46.20;;;;;;6216712;23;20308;-74
2023/08/12 13:11:58;;;;;;;8.65;3.42;;;33.20;46.30;;;;;;6216915;23;20010;-72
2023/08/12 13:14:24;;;;;;;6.75;2.50;;;33.10;46.10;;;;;;6214985;23;20012;-72
2023/08/12 13:16:50;;;;;;;10.98;3.90;;;33.10;46.50;;;;;;6217310;23;20067;-72
2023/08/12 13:19:16;;;;;;;9.75;3.78;;;33.00;46.90;;;;;;6216908;23;20005;-73
2023/08/12 13:21:42;;;;;;;8.15;3.10;;;33.00;46.90;;;;;;6216948;23;20001;-73
2023/08/12 13:24:08;;;;;;;8.40;4.07;;;33.00;47.00;;;;;;6216537;23;20085;-73
2023/08/12 13:26:33;;;;;;;7.07;3.50;;;33.10;47.10;;;;;;6216825;23;20001;-72
2023/08/12 13:28:59;;;;;;;11.90;4.22;;;33.10;47.10;;;;;;6216688;23;20004;-71
2023/08/12 13:31:25;;;;;;;8.10;3.65;;;33.10;47.20;;;;;;6216742;23;20426;-73
2023/08/12 13:33:51;;;;;;;6.57;2.90;;;33.10;47.10;;;;;;6222734;23;20016;-73
2023/08/12 13:36:17;;;;;;;6.85;3.13;;;33.10;47.20;;;;;;6216539;23;20000;-72
2023/08/12 13:38:43;;;;;;;5.95;2.70;;;33.10;47.20;;;;;;6214548;23;20054;-72
2023/08/12 13:41:09;;;;;;;9.57;3.63;;;33.10;46.80;;;;;;6240907;23;20016;-72
2023/08/12 13:43:35;;;;;;;6.72;3.13;;;33.10;47.70;;;;;;6247076;23;20075;-72
2023/08/12 13:46:01;;;;;;;6.18;2.75;;;33.10;47.20;;;;;;6246633;23;20419;-73
2023/08/12 13:48:27;;;;;;;6.13;2.50;;;33.10;47.00;;;;;;6246889;23;19996;-74
2023/08/12 13:50:53;;;;;;;8.35;3.20;;;33.10;46.60;;;;;;6219772;23;20047;-72
2023/08/12 13:53:19;;;;;;;5.35;2.65;;;33.20;46.60;;;;;;6246939;23;20022;-72
2023/08/12 13:55:45;;;;;;;6.78;2.95;;;33.20;46.50;;;;;;6246806;23;20000;-73
2023/08/12 13:58:11;;;;;;;6.78;3.42;;;33.20;46.40;;;;;;6246593;23;20422;-72
2023/08/12 14:00:37;;;;;;;8.50;3.10;;;33.20;46.60;;;;;;6246686;23;19997;-72
2023/08/12 14:03:03;;;;;;;5.82;2.78;;;33.20;46.80;;;;;;6219543;23;20012;-73
2023/08/12 14:05:29;;;;;;;7.35;2.45;;;33.30;46.70;;;;;;6246508;23;19996;-72
2023/08/12 14:07:55;;;;;;;8.48;3.13;;;33.30;46.60;;;;;;6246772;23;20074;-72
2023/08/12 14:10:21;;;;;;;5.18;2.40;;;33.30;47.10;;;;;;6219876;23;20011;-73
2023/08/12 14:12:48;;;;;;;6.00;2.10;;;33.20;47.40;;;;;;6246691;23;20442;-73
2023/08/12 14:15:15;;;;;;;4.80;2.47;;;33.30;47.50;;;;;;6246566;23;19996;-72
2023/08/12 14:17:41;;;;;;;5.88;2.45;;;33.30;48.00;;;;;;6246537;23;20092;-72
2023/08/12 14:20:10;;;;;;;8.02;3.05;;;33.20;48.40;;;;;;6246393;23;20028;-73
2023/08/12 14:22:39;;;;;;;7.20;2.50;;;33.10;48.70;;;;;;6219815;23;20031;-73
2023/08/12 14:25:05;;;;;;;6.53;2.53;;;33.10;49.50;;;;;;6246476;23;20003;-73
2023/08/12 14:27:31;;;;;;;9.82;2.50;;;33.00;49.30;;;;;;6252329;23;20026;-72
2023/08/12 14:29:57;;;;;;;6.05;2.80;;;33.00;50.30;;;;;;6249931;23;20024;-73
2023/08/12 14:32:29;;;;;;;6.32;2.50;;;32.90;50.50;;;;;;6219032;23;20027;-73
2023/08/12 14:34:55;;;;;;;4.93;2.67;;;33.00;51.60;;;;;;6219405;23;20453;-75
2023/08/12 14:37:21;;;;;;;5.72;2.53;;;32.90;51.70;;;;;;6219429;23;20008;-73
2023/08/12 14:39:47;;;;;;;5.30;2.47;;;32.80;52.20;;;;;;6246052;23;20015;-74
2023/08/12 14:42:13;;;;;;;4.60;2.40;;;32.70;52.60;;;;;;6246162;23;20032;-72
2023/08/12 14:44:40;;;;;;;7.65;2.85;;;32.60;52.70;;;;;;6246027;23;20518;-73
2023/08/12 14:47:06;;;;;;;7.00;2.38;;;32.50;52.70;;;;;;6246307;23;19996;-73
2023/08/12 14:49:32;;;;;;;7.55;2.63;;;32.50;52.60;;;;;;6246544;23;20008;-74
2023/08/12 14:52:03;;;;;;;7.82;2.60;;;32.40;53.20;;;;;;6246264;23;20442;-71
2023/08/12 14:54:30;;;;;;;6.93;2.60;;;32.40;52.80;;;;;;6246289;23;20371;-72
2023/08/12 14:56:56;;;;;;;6.20;2.65;;;32.40;52.60;;;;;;6218704;23;20032;-72
2023/08/12 14:59:22;;;;;;;5.68;2.35;;;32.40;52.40;;;;;;6245798;23;20000;-72
2023/08/12 15:01:47;;;;;;;8.43;2.75;;;32.40;53.50;;;;;;6245731;23;20000;-73
2023/08/12 15:04:13;;;;;;;5.25;2.80;;;32.30;53.50;;;;;;6218758;23;20442;-72
2023/08/12 15:06:40;;;;;;;9.18;2.40;;;32.30;54.20;;;;;;6246081;23;20071;-72
2023/08/12 15:09:06;;;;;;;6.95;2.47;;;32.30;54.60;;;;;;6218860;23;20087;-74
2023/08/12 15:11:34;;;;;;;6.07;2.38;;;32.20;54.90;;;;;;6218820;23;20342;-73
2023/08/12 15:14:03;;;;;;;10.23;3.17;;;32.10;55.00;;;;;;6245220;23;20012;-71
2023/08/12 15:16:32;;;;;;;4.88;2.38;;;32.10;55.40;;;;;;6245772;23;20323;-72
2023/08/12 15:18:58;;;;;;;6.75;2.80;;;32.00;55.40;;;;;;6245342;23;20054;-72
2023/08/12 15:21:27;;;;;;;5.75;2.50;;;31.90;55.60;;;;;;6246779;23;20321;-73
2023/08/12 15:23:54;;;;;;;9.07;2.70;;;31.90;55.20;;;;;;6251324;23;20020;-73
2023/08/12 15:26:20;;;;;;;5.53;2.38;;;31.80;54.80;;;;;;6246002;23;20368;-73
2023/08/12 15:28:46;;;;;;;7.15;2.22;;;31.80;54.70;;;;;;6245573;23;20027;-73
2023/08/12 15:31:14;;;;;;;6.07;2.13;;;31.90;54.40;;;;;;6218519;23;20434;-73
2023/08/12 15:33:41;;;;;;;4.82;2.30;;;31.90;54.20;;;;;;6245834;23;20019;-73
2023/08/12 15:36:07;;;;;;;5.80;2.30;;;31.90;54.00;;;;;;6218426;23;20008;-73
2023/08/12 15:38:33;;;;;;;6.28;2.78;;;31.90;53.80;;;;;;6245640;23;20461;-72
2023/08/12 15:41:03;;;;;;;5.35;2.50;;;31.90;53.90;;;;;;6244987;23;20058;-74
2023/08/12 15:43:29;;;;;;;5.03;2.28;;;31.90;54.60;;;;;;6245482;23;20330;-73
2023/08/12 15:45:55;;;;;;;7.85;2.60;;;31.90;55.20;;;;;;6245267;23;19996;-71
2023/08/12 15:48:27;;;;;;;7.00;2.92;;;31.80;55.00;;;;;;6218521;23;20003;-72
2023/08/12 15:50:53;;;;;;;4.90;2.50;;;31.80;54.70;;;;;;6245455;23;20430;-72
2023/08/12 15:53:19;;;;;;;7.78;2.55;;;31.70;55.00;;;;;;6245302;23;20510;-73
2023/08/12 15:55:45;;;;;;;9.43;3.35;;;31.70;55.60;;;;;;6218225;23;20280;-73
2023/08/12 15:58:11;;;;;;;6.28;2.40;;;31.70;55.50;;;;;;6245209;23;20091;-73
2023/08/12 16:00:39;;;;;;;7.65;2.47;;;31.70;55.50;;;;;;6245258;23;20001;-74
2023/08/12 16:03:06;;;;;;;7.70;2.20;;;31.60;55.80;;;;;;6245264;23;20004;-72
2023/08/12 16:05:34;;;;;;;5.88;2.50;;;31.60;56.00;;;;;;6245506;23;19996;-73
2023/08/12 16:07:59;;;;;;;6.05;2.50;;;31.60;56.30;;;;;;6245312;23;20027;-73
2023/08/12 16:10:26;;;;;;;5.95;2.40;;;31.60;56.60;;;;;;6245021;23;20422;-72
2023/08/12 16:12:52;;;;;;;6.80;2.63;;;31.60;56.20;;;;;;6245176;23;20426;-73
2023/08/12 16:15:18;;;;;;;7.07;2.72;;;31.60;56.30;;;;;;6246220;23;19996;-73
2023/08/12 16:17:44;;;;;;;7.45;2.40;;;31.60;56.20;;;;;;6223664;23;20019;-73
2023/08/12 16:20:12;;;;;;;5.00;2.35;;;31.60;56.00;;;;;;6245215;23;20000;-73
2023/08/12 16:22:38;;;;;;;10.15;2.53;;;31.60;55.90;;;;;;6244909;23;20073;-73
2023/08/12 16:25:05;;;;;;;7.60;2.83;;;31.60;56.40;;;;;;6218178;23;20156;-74
2023/08/12 16:27:31;;;;;;;7.10;2.60;;;31.60;57.00;;;;;;6247519;23;20023;-73
2023/08/12 16:29:57;;;;;;;6.82;3.13;;;31.50;56.90;;;;;;6247207;23;20051;-72
2023/08/12 16:32:22;;;;;;;5.88;3.03;;;31.50;56.30;;;;;;6247042;23;20008;-73
2023/08/12 16:34:48;;;;;;;7.13;2.90;;;31.50;55.80;;;;;;6220121;23;20053;-74
2023/08/12 16:37:14;;;;;;;4.70;2.10;;;31.50;55.60;;;;;;6220123;23;20457;-73
2023/08/12 16:39:40;;;;;;;4.78;2.47;;;31.40;55.50;;;;;;6219704;23;20020;-72
2023/08/12 16:42:06;;;;;;;5.10;2.35;;;31.40;55.30;;;;;;6247064;23;19996;-76
2023/08/12 16:44:32;;;;;;;5.30;2.42;;;31.40;55.30;;;;;;6247257;23;20008;-73
2023/08/12 16:47:00;;;;;;;4.60;2.38;;;31.30;54.60;;;;;;6247179;23;20051;-73
2023/08/12 16:49:26;;;;;;;5.07;2.30;;;31.30;54.20;;;;;;6220058;23;20095;-72
2023/08/12 16:51:52;;;;;;;5.05;2.20;;;31.30;53.80;;;;;;6220396;23;20015;-73
2023/08/12 16:54:18;;;;;;;8.65;2.55;;;31.20;52.90;;;;;;6247101;23;20008;-73
2023/08/12 16:56:44;;;;;;;5.00;2.15;;;31.20;53.10;;;;;;6220126;23;20008;-74
2023/08/12 16:59:10;;;;;;;6.13;2.47;;;31.10;52.70;;;;;;6247037;23;20008;-73
2023/08/12 17:01:36;;;;;;;5.60;2.15;;;31.10;52.80;;;;;;6247062;23;19996;-74
2023/08/12 17:04:02;;;;;;;5.22;2.10;;;31.10;53.00;;;;;;6246880;23;20083;-74
2023/08/12 17:06:28;;;;;;;9.43;2.33;;;31.10;52.40;;;;;;6247095;23;20035;-73
2023/08/12 17:08:54;;;;;;;4.63;2.28;;;31.10;52.30;;;;;;6246769;23;20023;-73
2023/08/12 17:11:20;;;;;;;6.50;2.50;;;31.10;52.20;;;;;;6247540;23;20441;-72
2023/08/12 17:13:46;;;;;;;5.57;2.17;;;31.00;51.70;;;;;;6247942;23;20055;-74
2023/08/12 17:16:11;;;;;;;6.95;2.47;;;31.00;52.10;;;;;;6219826;23;20439;-71
2023/08/12 17:18:37;;;;;;;6.93;3.40;;;31.00;52.00;;;;;;6219889;23;20004;-74
2023/08/12 17:21:03;;;;;;;5.95;2.50;;;31.00;51.70;;;;;;6246737;23;19996;-73
2023/08/12 17:23:29;;;;;;;4.45;2.55;;;31.00;52.40;;;;;;6246655;23;20011;-73
2023/08/12 17:25:56;;;;;;;7.55;3.67;;;30.90;52.90;;;;;;6247421;23;20024;-73
2023/08/12 17:28:22;;;;;;;9.57;6.72;;;30.80;52.80;;;;;;6247093;23;20083;-73
2023/08/12 17:30:48;;;;;;;5.88;2.80;;;30.70;53.20;;;;;;6246718;23;20053;-73
2023/08/12 17:33:14;;;;;;;4.82;2.30;;;30.60;53.60;;;;;;6246678;23;20039;-73
2023/08/12 17:35:40;;;;;;;7.20;2.38;;;30.60;53.80;;;;;;6246691;23;20012;-72
2023/08/12 17:38:06;;;;;;;6.32;2.50;;;30.50;54.20;;;;;;6246625;23;20004;-73
